createdAt,value
2022-09-03T00:00:51.985Z,1013.469971
2022-09-03T00:01:49.361Z,1013.51532
2022-09-03T00:02:48.778Z,1013.514587
2022-09-03T00:03:45.016Z,1013.502136
2022-09-03T00:04:45.145Z,1013.481934
2022-09-03T00:06:44.316Z,1013.426697
2022-09-03T00:07:38.712Z,1013.469055
2022-09-03T00:08:40.770Z,1013.515076
2022-09-03T00:09:33.792Z,1013.526367
2022-09-03T00:11:33.508Z,1013.494873
2022-09-03T00:12:30.760Z,1013.53717
2022-09-03T00:13:33.037Z,1013.478455
2022-09-03T00:14:33.762Z,1013.535706
2022-09-03T00:15:37.548Z,1013.528748
2022-09-03T00:16:36.605Z,1013.522034
2022-09-03T00:17:35.760Z,1013.4729
2022-09-03T00:18:44.603Z,1013.441895
2022-09-03T00:19:40.723Z,1013.413452
2022-09-03T00:21:42.481Z,1013.478577
2022-09-03T00:22:46.368Z,1013.469604
2022-09-03T00:23:40.627Z,1013.469604
2022-09-03T00:24:40.834Z,1013.430237
2022-09-03T00:25:36.501Z,1013.391602
2022-09-03T00:26:40.495Z,1013.444885
2022-09-03T00:27:37.648Z,1013.386108
2022-09-03T00:28:38.145Z,1013.346802
2022-09-03T00:29:34.333Z,1013.447266
2022-09-03T00:31:35.543Z,1013.361389
2022-09-03T00:32:39.388Z,1013.294861
2022-09-03T00:33:33.680Z,1013.325562
2022-09-03T00:34:34.373Z,1013.325562
2022-09-03T00:35:28.623Z,1013.353577
2022-09-03T00:36:31.757Z,1013.345459
2022-09-03T00:37:23.696Z,1013.360168
2022-09-03T00:38:24.722Z,1013.434082
2022-09-03T00:39:19.369Z,1013.317261
2022-09-03T00:40:21.616Z,1013.360168
2022-09-03T00:41:15.945Z,1013.352661
2022-09-03T00:42:20.261Z,1013.339966
2022-09-03T00:43:18.349Z,1013.394165
2022-09-03T00:45:03.786Z,1013.39978
2022-09-03T00:45:49.185Z,1013.386108
2022-09-03T00:46:46.350Z,1013.452881
2022-09-03T00:47:49.916Z,1013.378296
2022-09-03T00:48:58.039Z,1013.373962
2022-09-03T00:50:00.454Z,1013.380798
2022-09-03T00:51:56.957Z,1013.401123
2022-09-03T00:52:55.254Z,1013.369446
2022-09-03T00:53:57.801Z,1013.35376
2022-09-03T00:54:52.250Z,1013.357483
2022-09-03T00:55:51.371Z,1013.412537
2022-09-03T00:56:49.350Z,1013.326599
2022-09-03T00:57:49.754Z,1013.423706
2022-09-03T00:58:46.796Z,1013.376404
2022-09-03T00:59:49.517Z,1013.376404
2022-09-03T01:00:46.287Z,1013.310669
2022-09-03T01:01:48.868Z,1013.414795
2022-09-03T01:02:45.667Z,1013.371826
2022-09-03T01:03:54.963Z,1013.297913
2022-09-03T01:04:50.208Z,1013.332764
2022-09-03T01:05:45.554Z,1013.371826
2022-09-03T01:06:54.277Z,1013.325867
2022-09-03T01:07:50.008Z,1013.414795
2022-09-03T01:08:47.448Z,1013.419189
2022-09-03T01:09:46.794Z,1013.362
2022-09-03T01:10:44.069Z,1013.339355
2022-09-03T01:11:45.670Z,1013.385315
2022-09-03T01:12:38.201Z,1013.312195
2022-09-03T01:13:43.667Z,1013.319641
2022-09-03T01:14:36.343Z,1013.331055
2022-09-03T01:15:38.649Z,1013.36261
2022-09-03T01:16:33.099Z,1013.359558
2022-09-03T01:17:36.606Z,1013.389771
2022-09-03T01:18:33.013Z,1013.39801
2022-09-03T01:19:41.751Z,1013.428162
2022-09-03T01:21:29.256Z,1013.411194
2022-09-03T01:22:08.899Z,1013.3703
2022-09-03T01:23:13.142Z,1013.438538
2022-09-03T01:24:07.837Z,1013.37439
2022-09-03T01:25:10.036Z,1013.390137
2022-09-03T01:26:07.437Z,1013.381775
2022-09-03T01:27:04.819Z,1013.385681
2022-09-03T01:28:07.916Z,1013.399963
2022-09-03T01:29:09.283Z,1013.368347
2022-09-03T01:30:08.796Z,1013.372437
2022-09-03T01:31:06.585Z,1013.321655
2022-09-03T01:32:14.852Z,1013.31604
2022-09-03T01:33:07.253Z,1013.346802
2022-09-03T01:34:07.726Z,1013.354431
2022-09-03T01:35:06.883Z,1013.455261
2022-09-03T01:37:05.531Z,1013.33783
2022-09-03T01:38:09.464Z,1013.395386
2022-09-03T01:39:01.812Z,1013.376343
2022-09-03T01:40:04.415Z,1013.356873
2022-09-03T01:40:56.690Z,1013.404358
2022-09-03T01:41:55.661Z,1013.380798
2022-09-03T01:42:50.934Z,1013.361389
2022-09-03T01:43:53.194Z,1013.353699
2022-09-03T01:44:56.950Z,1013.36499
2022-09-03T01:45:57.662Z,1013.398682
2022-09-03T01:46:58.925Z,1013.339966
2022-09-03T01:47:51.999Z,1013.379822
2022-09-03T01:49:37.299Z,1013.311584
2022-09-03T01:51:32.334Z,1013.318115
2022-09-03T01:52:39.416Z,1013.340759
2022-09-03T01:53:35.866Z,1013.344299
2022-09-03T01:54:40.720Z,1013.31604
2022-09-03T01:55:32.978Z,1013.269836
2022-09-03T01:56:35.106Z,1013.31604
2022-09-03T01:57:35.305Z,1013.253967
2022-09-03T01:58:34.453Z,1013.315186
2022-09-03T01:59:29.066Z,1013.311584
2022-09-03T02:00:28.592Z,1013.27301
2022-09-03T02:01:24.522Z,1013.322815
2022-09-03T02:02:25.808Z,1013.31842
2022-09-03T02:03:32.026Z,1013.248352
2022-09-03T02:03:57.056Z,1013.368225
2022-09-03T02:04:52.725Z,1013.278748
2022-09-03T02:05:56.761Z,1013.326538
2022-09-03T02:06:52.929Z,1013.329712
2022-09-03T02:07:54.147Z,1013.27887
2022-09-03T02:08:50.795Z,1013.282654
2022-09-03T02:09:54.591Z,1013.285645
2022-09-03T02:10:50.032Z,1013.266846
2022-09-03T02:11:51.769Z,1013.301514
2022-09-03T02:12:50.008Z,1013.254028
2022-09-03T02:13:49.154Z,1013.273682
2022-09-03T02:14:43.446Z,1013.246582
2022-09-03T02:15:47.089Z,1013.219482
2022-09-03T02:16:44.307Z,1013.226868
2022-09-03T02:17:42.858Z,1013.219482
2022-09-03T02:18:38.254Z,1013.114014
2022-09-03T02:19:40.326Z,1013.190857
2022-09-03T02:20:38.485Z,1013.257996
2022-09-03T02:21:40.218Z,1013.245178
2022-09-03T02:22:36.701Z,1013.253479
2022-09-03T02:23:36.494Z,1013.260864
2022-09-03T02:24:33.215Z,1013.248962
2022-09-03T02:25:32.861Z,1013.226318
2022-09-03T02:26:27.317Z,1013.299438
2022-09-03T02:28:17.861Z,1013.294006
2022-09-03T02:28:57.757Z,1013.256409
2022-09-03T02:29:56.861Z,1013.218018
2022-09-03T02:30:55.340Z,1013.225708
2022-09-03T02:31:53.704Z,1013.275452
2022-09-03T02:32:48.275Z,1013.274353
2022-09-03T02:33:48.216Z,1013.363892
2022-09-03T02:34:54.038Z,1013.290161
2022-09-03T02:35:55.465Z,1013.255554
2022-09-03T02:36:53.257Z,1013.265381
2022-09-03T02:37:51.292Z,1013.21051
2022-09-03T02:38:48.300Z,1013.290466
2022-09-03T02:39:48.038Z,1013.213501
2022-09-03T02:40:51.662Z,1013.206177
2022-09-03T02:41:50.867Z,1013.181885
2022-09-03T02:42:49.669Z,1013.197144
2022-09-03T02:43:45.820Z,1013.215271
2022-09-03T02:44:45.664Z,1013.237976
2022-09-03T02:45:40.213Z,1013.234741
2022-09-03T02:46:44.132Z,1013.230225
2022-09-03T02:47:38.229Z,1013.244812
2022-09-03T02:48:40.533Z,1013.147705
2022-09-03T02:49:32.982Z,1013.182861
2022-09-03T02:50:31.344Z,1013.136292
2022-09-03T02:51:33.013Z,1013.178345
2022-09-03T02:52:29.992Z,1013.200928
2022-09-03T02:53:34.842Z,1013.177734
2022-09-03T02:54:33.042Z,1013.153625
2022-09-03T02:55:28.310Z,1013.185181
2022-09-03T02:56:32.332Z,1013.142334
2022-09-03T02:57:27.863Z,1013.182129
2022-09-03T02:58:25.936Z,1013.236389
2022-09-03T02:59:22.223Z,1013.154968
2022-09-03T03:00:21.332Z,1013.197449
2022-09-03T03:01:23.863Z,1013.173889
2022-09-03T03:02:22.080Z,1013.196472
2022-09-03T03:03:18.617Z,1013.216125
2022-09-03T03:04:18.666Z,1013.146118
2022-09-03T03:05:18.003Z,1013.192017
2022-09-03T03:06:21.819Z,1013.1875
2022-09-03T03:07:16.125Z,1013.167297
2022-09-03T03:08:42.661Z,1013.14856
2022-09-03T03:09:26.531Z,1013.144653
2022-09-03T03:10:29.300Z,1013.1875
2022-09-03T03:11:30.022Z,1013.183044
2022-09-03T03:12:28.127Z,1013.198181
2022-09-03T03:13:36.706Z,1013.201538
2022-09-03T03:14:36.848Z,1013.243408
2022-09-03T03:15:38.445Z,1013.162048
2022-09-03T03:16:36.838Z,1013.150146
2022-09-03T03:17:34.675Z,1013.164429
2022-09-03T03:18:36.794Z,1013.211243
2022-09-03T03:19:34.680Z,1013.179626
2022-09-03T03:20:36.547Z,1013.195435
2022-09-03T03:21:37.512Z,1013.179626
2022-09-03T03:22:32.876Z,1013.14801
2022-09-03T03:23:35.292Z,1013.216553
2022-09-03T03:24:34.373Z,1013.154724
2022-09-03T03:25:29.712Z,1013.151001
2022-09-03T03:26:31.508Z,1013.154724
2022-09-03T03:27:27.106Z,1013.177368
2022-09-03T03:28:41.355Z,1013.123108
2022-09-03T03:29:35.749Z,1013.107361
2022-09-03T03:31:31.972Z,1013.104065
2022-09-03T03:32:35.713Z,1013.142517
2022-09-03T03:33:37.990Z,1013.106445
2022-09-03T03:34:46.556Z,1013.144897
2022-09-03T03:35:45.024Z,1013.114258
2022-09-03T03:36:44.054Z,1013.121033
2022-09-03T03:37:44.052Z,1013.097473
2022-09-03T03:38:39.129Z,1013.108704
2022-09-03T03:39:39.340Z,1013.154907
2022-09-03T03:40:37.473Z,1013.116516
2022-09-03T03:41:38.446Z,1013.0849
2022-09-03T03:42:34.952Z,1013.112
2022-09-03T03:43:37.137Z,1013.080383
2022-09-03T03:44:38.072Z,1013.138184
2022-09-03T03:45:42.772Z,1013.107483
2022-09-03T03:46:38.529Z,1013.076416
2022-09-03T03:47:38.266Z,1013.029785
2022-09-03T03:48:40.326Z,1013.06073
2022-09-03T03:50:24.708Z,1013.077148
2022-09-03T03:51:06.606Z,1013.071228
2022-09-03T03:52:03.897Z,1013.056702
2022-09-03T03:53:03.335Z,1013.032959
2022-09-03T03:54:04.357Z,1013.031982
2022-09-03T03:54:05.600Z,1013.031982
2022-09-03T03:54:59.089Z,1013.016113
2022-09-03T03:55:56.804Z,1013.093933
2022-09-03T03:56:56.597Z,1013.151672
2022-09-03T03:57:53.882Z,1013.158508
2022-09-03T03:58:50.829Z,1013.142639
2022-09-03T03:59:49.223Z,1013.103516
2022-09-03T04:00:46.844Z,1013.126892
2022-09-03T04:01:45.870Z,1013.098999
2022-09-03T04:02:42.809Z,1013.052368
2022-09-03T04:03:39.918Z,1013.07489
2022-09-03T04:04:36.786Z,1012.986145
2022-09-03T04:05:35.664Z,1012.974854
2022-09-03T04:06:34.510Z,1012.939453
2022-09-03T04:07:31.492Z,1012.920654
2022-09-03T04:08:28.632Z,1013.009338
2022-09-03T04:09:25.639Z,1012.966553
2022-09-03T04:10:26.976Z,1012.909363
2022-09-03T04:11:31.019Z,1012.997437
2022-09-03T04:12:34.399Z,1012.956848
2022-09-03T04:13:32.293Z,1012.916199
2022-09-03T04:14:30.714Z,1012.969116
2022-09-03T04:15:28.209Z,1012.876831
2022-09-03T04:16:26.245Z,1012.942017
2022-09-03T04:17:25.366Z,1012.94873
2022-09-03T04:18:21.240Z,1012.966858
2022-09-03T04:19:25.378Z,1012.970642
2022-09-03T04:21:19.937Z,1012.935242
2022-09-03T04:22:16.648Z,1012.898987
2022-09-03T04:23:20.060Z,1012.902954
2022-09-03T04:24:20.606Z,1012.930054
2022-09-03T04:25:17.399Z,1012.941284
2022-09-03T04:26:20.558Z,1012.914124
2022-09-03T04:27:18.803Z,1012.901245
2022-09-03T04:28:17.960Z,1012.978577
2022-09-03T04:29:16.786Z,1012.916382
2022-09-03T04:30:16.067Z,1013.005615
2022-09-03T04:32:14.692Z,1013.03949
2022-09-03T04:33:17.393Z,1012.883667
2022-09-03T04:34:29.840Z,1012.952393
2022-09-03T04:35:31.370Z,1012.866699
2022-09-03T04:36:29.403Z,1012.885925
2022-09-03T04:37:30.534Z,1012.919739
2022-09-03T04:38:27.393Z,1012.9422
2022-09-03T04:39:24.887Z,1012.961914
2022-09-03T04:41:24.314Z,1012.899414
2022-09-03T04:42:29.788Z,1012.919128
2022-09-03T04:43:27.729Z,1012.917419
2022-09-03T04:44:25.652Z,1012.932556
2022-09-03T04:45:25.591Z,1012.90155
2022-09-03T04:46:23.710Z,1012.878296
2022-09-03T04:47:20.707Z,1012.943665
2022-09-03T04:48:20.301Z,1012.927917
2022-09-03T04:49:15.156Z,1012.888489
2022-09-03T04:50:15.121Z,1012.888489
2022-09-03T04:51:12.598Z,1012.861511
2022-09-03T04:52:15.248Z,1012.805969
2022-09-03T04:53:17.102Z,1012.913208
2022-09-03T04:54:19.521Z,1012.916565
2022-09-03T04:55:17.709Z,1012.943542
2022-09-03T04:56:09.658Z,1012.870361
2022-09-03T04:57:09.479Z,1012.927612
2022-09-03T04:58:08.572Z,1012.934387
2022-09-03T04:59:07.423Z,1012.949036
2022-09-03T05:00:06.454Z,1012.925903
2022-09-03T05:01:07.876Z,1013.022827
2022-09-03T05:02:00.397Z,1012.986694
2022-09-03T05:03:04.558Z,1012.989502
2022-09-03T05:03:58.798Z,1013.000916
2022-09-03T05:04:58.650Z,1012.993469
2022-09-03T05:05:52.946Z,1012.997986
2022-09-03T05:06:56.776Z,1013.007446
2022-09-03T05:07:58.515Z,1012.979675
2022-09-03T05:08:52.591Z,1013.072083
2022-09-03T05:09:51.423Z,1012.998962
2022-09-03T05:11:49.464Z,1013.033813
2022-09-03T05:12:47.561Z,1013.02594
2022-09-03T05:13:48.184Z,1013.049622
2022-09-03T05:14:40.159Z,1013.076599
2022-09-03T05:15:41.969Z,1013.077454
2022-09-03T05:16:35.412Z,1013.042908
2022-09-03T05:17:37.794Z,1013.023254
2022-09-03T05:18:31.510Z,1013.023254
2022-09-03T05:19:33.224Z,1013.007446
2022-09-03T05:20:29.753Z,1013.039063
2022-09-03T05:22:07.640Z,1013.048279
2022-09-03T05:22:47.573Z,1013.049988
2022-09-03T05:23:49.296Z,1012.972717
2022-09-03T05:24:53.084Z,1013.080994
2022-09-03T05:26:48.949Z,1012.998596
2022-09-03T05:27:46.792Z,1013.045349
2022-09-03T05:28:48.397Z,1012.921326
2022-09-03T05:29:47.873Z,1012.989502
2022-09-03T05:30:47.925Z,1013.02124
2022-09-03T05:31:50.302Z,1013.052124
2022-09-03T05:32:43.206Z,1013.079102
2022-09-03T05:33:49.236Z,1012.966248
2022-09-03T05:34:42.220Z,1013.027893
2022-09-03T05:36:42.761Z,1013.059448
2022-09-03T05:37:38.160Z,1013.052124
2022-09-03T05:38:41.638Z,1013.059448
2022-09-03T05:39:36.003Z,1013.03241
2022-09-03T05:40:35.091Z,1013.079773
2022-09-03T05:41:32.203Z,1013.061035
2022-09-03T05:42:36.341Z,1013.006897
2022-09-03T05:43:31.633Z,1012.979919
2022-09-03T05:44:34.327Z,1013.041565
2022-09-03T05:46:27.776Z,1013.023621
2022-09-03T05:47:26.839Z,1013.058411
2022-09-03T05:48:29.953Z,1013.077759
2022-09-03T05:49:28.490Z,1013.077759
2022-09-03T05:50:31.246Z,1013.10144
2022-09-03T05:51:29.907Z,1013.058411
2022-09-03T05:52:27.957Z,1013.050659
2022-09-03T05:53:29.839Z,1013.031433
2022-09-03T05:54:25.306Z,1013.047302
2022-09-03T05:55:29.078Z,1012.978638
2022-09-03T05:56:23.172Z,1013.029175
2022-09-03T05:57:26.703Z,1013.080261
2022-09-03T05:58:19.410Z,1013.011292
2022-09-03T05:59:19.917Z,1013.089294
2022-09-03T06:00:15.215Z,1012.992188
2022-09-03T06:01:18.230Z,1013.020264
2022-09-03T06:02:13.684Z,1013.027954
2022-09-03T06:03:18.001Z,1013.036255
2022-09-03T06:04:15.345Z,1013.052002
2022-09-03T06:05:15.303Z,1013.05658
2022-09-03T06:06:13.730Z,1013.022888
2022-09-03T06:07:56.663Z,1013.117065
2022-09-03T06:08:36.404Z,1013.019104
2022-09-03T06:09:33.808Z,1013.148926
2022-09-03T06:10:36.545Z,1013.063782
2022-09-03T06:10:40.850Z,1013.063782
2022-09-03T06:10:41.290Z,1013.063782
2022-09-03T06:11:28.403Z,1012.971252
2022-09-03T06:12:27.741Z,1013.111145
2022-09-03T06:13:24.069Z,1013.099976
2022-09-03T06:14:23.627Z,1013.027039
2022-09-03T06:15:19.525Z,1013.065308
2022-09-03T06:16:18.809Z,1013.115723
2022-09-03T06:16:27.193Z,1013.115723
2022-09-03T06:16:31.812Z,1013.115723
2022-09-03T06:17:18.388Z,1013.050354
2022-09-03T06:18:15.322Z,1013.078979
2022-09-03T06:19:14.472Z,1013.056274
2022-09-03T06:20:09.714Z,1013.067688
2022-09-03T06:21:11.557Z,1013.079651
2022-09-03T06:22:06.658Z,1013.083435
2022-09-03T06:23:01.192Z,1013.041321
2022-09-03T06:24:02.832Z,1013.05365
2022-09-03T06:25:02.835Z,1013.099976
2022-09-03T06:26:58.576Z,1013.072876
2022-09-03T06:27:53.773Z,1013.096436
2022-09-03T06:28:53.608Z,1013.109314
2022-09-03T06:29:51.728Z,1013.043823
2022-09-03T06:30:50.158Z,1013.001038
2022-09-03T06:31:49.378Z,1013.008789
2022-09-03T06:32:45.425Z,1013.051575
2022-09-03T06:33:42.158Z,1013.005432
2022-09-03T06:34:42.194Z,1013.03241
2022-09-03T06:35:42.900Z,1013.09906
2022-09-03T06:35:42.978Z,1013.09906
2022-09-03T06:36:39.500Z,1013.029785
2022-09-03T06:37:37.151Z,1013.05835
2022-09-03T06:38:31.699Z,1013.086121
2022-09-03T06:39:32.492Z,1013.098999
2022-09-03T06:40:25.945Z,1013.110962
2022-09-03T06:41:22.026Z,1013.04187
2022-09-03T06:43:07.991Z,1012.997925
2022-09-03T06:43:47.468Z,1012.98761
2022-09-03T06:44:47.477Z,1013.071167
2022-09-03T06:45:46.644Z,1013.051453
2022-09-03T06:46:41.979Z,1013.071167
2022-09-03T06:47:42.107Z,1013.039551
2022-09-03T06:48:36.758Z,1013.004028
2022-09-03T06:49:36.442Z,1012.97699
2022-09-03T06:51:30.747Z,1013.039978
2022-09-03T06:52:27.055Z,1012.986023
2022-09-03T06:53:26.100Z,1013.064331
2022-09-03T06:53:32.180Z,1013.064331
2022-09-03T06:54:21.495Z,1013.014587
2022-09-03T06:55:20.849Z,1012.983521
2022-09-03T06:56:15.735Z,1012.922546
2022-09-03T06:57:15.353Z,1013.065796
2022-09-03T06:58:10.886Z,1013.089661
2022-09-03T06:59:08.524Z,1013.078369
2022-09-03T07:00:07.893Z,1013.085815
2022-09-03T07:02:01.446Z,1012.959229
2022-09-03T07:03:00.392Z,1012.947327
2022-09-03T07:03:55.282Z,1012.986389
2022-09-03T07:04:53.782Z,1013.029175
2022-09-03T07:05:53.330Z,1012.999634
2022-09-03T07:06:48.438Z,1012.977112
2022-09-03T07:07:50.912Z,1013.013123
2022-09-03T07:08:43.334Z,1012.956421
2022-09-03T07:09:48.320Z,1012.96875
2022-09-03T07:11:36.515Z,1012.9953
2022-09-03T07:12:39.447Z,1013.008484
2022-09-03T07:13:33.825Z,1013.052551
2022-09-03T07:14:32.959Z,1013.026917
2022-09-03T07:16:30.347Z,1012.971497
2022-09-03T07:17:26.188Z,1012.968506
2022-09-03T07:18:53.097Z,1012.900391
2022-09-03T07:19:31.381Z,1012.97583
2022-09-03T07:21:28.654Z,1012.99884
2022-09-03T07:22:31.294Z,1012.863464
2022-09-03T07:23:28.366Z,1012.914246
2022-09-03T07:24:24.470Z,1012.938782
2022-09-03T07:25:28.401Z,1012.951111
2022-09-03T07:27:22.854Z,1012.925354
2022-09-03T07:28:19.395Z,1012.915283
2022-09-03T07:29:21.226Z,1012.892578
2022-09-03T07:30:17.057Z,1012.877136
2022-09-03T07:32:15.252Z,1012.880005
2022-09-03T07:33:15.789Z,1012.861511
2022-09-03T07:34:12.978Z,1012.858948
2022-09-03T07:35:16.251Z,1012.847961
2022-09-03T07:37:14.406Z,1012.861755
2022-09-03T07:38:08.911Z,1012.866943
2022-09-03T07:39:09.935Z,1012.860046
2022-09-03T07:40:06.534Z,1012.938293
2022-09-03T07:41:05.353Z,1012.919373
2022-09-03T07:42:06.892Z,1012.795349
2022-09-03T07:43:03.655Z,1012.898254
2022-09-03T07:44:05.170Z,1012.960815
2022-09-03T07:45:01.930Z,1012.965149
2022-09-03T07:46:03.849Z,1012.919495
2022-09-03T07:47:00.912Z,1012.916687
2022-09-03T07:48:02.395Z,1012.956848
2022-09-03T07:48:59.669Z,1012.949829
2022-09-03T07:50:03.590Z,1012.908325
2022-09-03T07:50:57.911Z,1012.900757
2022-09-03T07:51:59.647Z,1012.879028
2022-09-03T07:52:56.793Z,1012.860413
2022-09-03T07:53:58.301Z,1012.865479
2022-09-03T07:54:55.141Z,1012.874084
2022-09-03T07:56:54.072Z,1012.933594
2022-09-03T07:57:56.549Z,1012.89209
2022-09-03T07:58:54.427Z,1012.959473
2022-09-03T07:59:55.366Z,1012.889526
2022-09-03T08:00:53.512Z,1012.905273
2022-09-03T08:01:57.683Z,1012.894653
2022-09-03T08:02:52.283Z,1012.895569
2022-09-03T08:03:54.622Z,1012.86969
2022-09-03T08:04:52.897Z,1012.91748
2022-09-03T08:05:53.909Z,1012.836548
2022-09-03T08:06:52.207Z,1012.856995
2022-09-03T08:08:31.272Z,1012.867249
2022-09-03T08:08:35.628Z,1012.867249
2022-09-03T08:09:10.938Z,1012.868652
2022-09-03T08:10:09.245Z,1012.791138
2022-09-03T08:12:05.631Z,1012.917175
2022-09-03T08:13:06.576Z,1012.870667
2022-09-03T08:14:02.303Z,1012.867432
2022-09-03T08:15:03.005Z,1012.894836
2022-09-03T08:16:59.545Z,1012.833557
2022-09-03T08:17:55.763Z,1012.857727
2022-09-03T08:18:03.743Z,1012.857727
2022-09-03T08:18:05.990Z,1012.857727
2022-09-03T08:18:56.918Z,1012.796692
2022-09-03T08:19:53.890Z,1012.726868
2022-09-03T08:21:50.322Z,1012.887512
2022-09-03T08:22:51.168Z,1012.826111
2022-09-03T08:23:47.501Z,1012.791443
2022-09-03T08:24:48.370Z,1012.78833
2022-09-03T08:26:51.378Z,1012.898804
2022-09-03T08:26:52.397Z,1012.898804
2022-09-03T08:27:44.715Z,1012.809753
2022-09-03T08:28:41.243Z,1012.818481
2022-09-03T08:29:42.540Z,1012.807007
2022-09-03T08:30:39.289Z,1012.814941
2022-09-03T08:31:40.457Z,1012.835266
2022-09-03T08:32:37.586Z,1012.886658
2022-09-03T08:33:38.337Z,1012.824768
2022-09-03T08:34:34.928Z,1012.883545
2022-09-03T08:35:36.448Z,1012.860474
2022-09-03T08:35:57.677Z,1012.829834
2022-09-03T08:36:57.065Z,1012.920166
2022-09-03T08:37:58.614Z,1012.768188
2022-09-03T08:38:55.300Z,1012.831299
2022-09-03T08:39:57.239Z,1012.792358
2022-09-03T08:40:53.876Z,1012.851135
2022-09-03T08:41:55.560Z,1012.840393
2022-09-03T08:42:52.316Z,1012.863647
2022-09-03T08:43:53.974Z,1012.906982
2022-09-03T08:44:51.259Z,1012.87262
2022-09-03T08:46:49.080Z,1012.861511
2022-09-03T08:47:50.551Z,1012.791504
2022-09-03T08:48:47.231Z,1012.885864
2022-09-03T08:49:49.437Z,1012.803955
2022-09-03T08:51:47.625Z,1012.793091
2022-09-03T08:52:44.871Z,1012.769897
2022-09-03T08:53:45.867Z,1012.769897
2022-09-03T08:54:42.863Z,1012.859314
2022-09-03T08:56:40.753Z,1012.824524
2022-09-03T08:58:16.083Z,1012.747437
2022-09-03T09:00:32.712Z,1012.714417
2022-09-03T09:02:14.211Z,1012.7771
2022-09-03T09:03:10.448Z,1012.741699
2022-09-03T09:04:11.310Z,1012.718262
2022-09-03T09:05:11.141Z,1012.706665
2022-09-03T09:05:14.307Z,1012.706665
2022-09-03T09:07:05.139Z,1012.706665
2022-09-03T09:08:05.772Z,1012.741455
2022-09-03T09:09:01.701Z,1012.741455
2022-09-03T09:10:02.701Z,1012.710876
2022-09-03T09:11:59.432Z,1012.761414
2022-09-03T09:12:57.789Z,1012.804443
2022-09-03T09:13:53.973Z,1012.803711
2022-09-03T09:14:55.187Z,1012.81604
2022-09-03T09:16:51.709Z,1012.749146
2022-09-03T09:17:48.014Z,1012.787903
2022-09-03T09:18:48.448Z,1012.756775
2022-09-03T09:19:44.090Z,1012.812012
2022-09-03T09:20:47.337Z,1012.764771
2022-09-03T09:21:41.712Z,1012.675232
2022-09-03T09:22:41.483Z,1012.749878
2022-09-03T09:23:37.431Z,1012.702698
2022-09-03T09:24:38.274Z,1012.765869
2022-09-03T09:25:34.448Z,1012.738464
2022-09-03T09:27:33.581Z,1012.750732
2022-09-03T09:28:29.555Z,1012.704346
2022-09-03T09:29:33.038Z,1012.735779
2022-09-03T09:30:26.512Z,1012.719971
2022-09-03T09:32:23.235Z,1012.665283
2022-09-03T09:33:26.674Z,1012.661133
2022-09-03T09:34:20.590Z,1012.681091
2022-09-03T09:35:20.817Z,1012.696045
2022-09-03T09:37:16.623Z,1012.657104
2022-09-03T09:38:46.515Z,1012.645569
2022-09-03T09:39:21.128Z,1012.606567
2022-09-03T09:40:19.193Z,1012.637756
2022-09-03T09:41:19.473Z,1012.695984
2022-09-03T09:42:14.614Z,1012.648804
2022-09-03T09:43:15.312Z,1012.659668
2022-09-03T09:44:10.870Z,1012.690979
2022-09-03T09:44:15.896Z,1012.690979
2022-09-03T09:45:10.841Z,1012.710144
2022-09-03T09:47:06.250Z,1012.643127
2022-09-03T09:48:01.739Z,1012.79895
2022-09-03T09:49:04.320Z,1012.833801
2022-09-03T09:49:56.961Z,1012.759155
2022-09-03T09:50:59.957Z,1012.766785
2022-09-03T09:51:52.508Z,1012.802063
2022-09-03T09:52:52.280Z,1012.766724
2022-09-03T09:53:50.442Z,1012.7276
2022-09-03T09:54:47.404Z,1012.778015
2022-09-03T09:55:47.083Z,1012.703674
2022-09-03T09:57:42.161Z,1012.761902
2022-09-03T09:58:37.766Z,1012.769897
2022-09-03T09:59:37.783Z,1012.757507
2022-09-03T10:00:33.138Z,1012.850952
2022-09-03T10:02:28.157Z,1012.764893
2022-09-03T10:03:30.134Z,1012.8974
2022-09-03T10:04:22.922Z,1012.862671
2022-09-03T10:05:25.393Z,1012.827026
2022-09-03T10:07:20.722Z,1012.803772
2022-09-03T10:08:14.130Z,1012.795471
2022-09-03T10:09:14.515Z,1012.870056
2022-09-03T10:10:15.152Z,1012.854248
2022-09-03T10:11:08.594Z,1012.838623
2022-09-03T10:12:08.413Z,1012.881592
2022-09-03T10:13:03.958Z,1012.861755
2022-09-03T10:14:07.395Z,1012.823669
2022-09-03T10:15:00.670Z,1012.793091
2022-09-03T10:17:01.671Z,1012.875061
2022-09-03T10:17:54.699Z,1012.781372
2022-09-03T10:18:57.680Z,1012.832214
2022-09-03T10:19:50.898Z,1012.894897
2022-09-03T10:21:46.763Z,1012.808838
2022-09-03T10:23:23.884Z,1012.774231
2022-09-03T10:24:07.291Z,1012.782532
2022-09-03T10:25:03.186Z,1012.711975
2022-09-03T10:26:58.373Z,1012.778748
2022-09-03T10:28:00.598Z,1012.782288
2022-09-03T10:28:56.841Z,1012.739136
2022-09-03T10:29:53.587Z,1012.8526
2022-09-03T10:30:49.069Z,1012.813171
2022-09-03T10:31:51.662Z,1012.778137
2022-09-03T10:32:48.584Z,1012.797485
2022-09-03T10:33:49.282Z,1012.699707
2022-09-03T10:34:42.653Z,1012.836365
2022-09-03T10:35:45.379Z,1012.785522
2022-09-03T10:36:37.991Z,1012.79718
2022-09-03T10:37:35.457Z,1012.816528
2022-09-03T10:38:34.929Z,1012.789246
2022-09-03T10:39:30.234Z,1012.808838
2022-09-03T10:40:27.669Z,1012.808838
2022-09-03T10:42:22.546Z,1012.773438
2022-09-03T10:43:23.205Z,1012.773438
2022-09-03T10:44:18.866Z,1012.836121
2022-09-03T10:45:18.471Z,1012.839355
2022-09-03T10:47:13.158Z,1012.746216
2022-09-03T10:48:08.280Z,1012.727112
2022-09-03T10:49:10.328Z,1012.770081
2022-09-03T10:50:02.750Z,1012.750732
2022-09-03T10:51:58.454Z,1012.813171
2022-09-03T10:53:00.251Z,1012.785828
2022-09-03T10:53:54.374Z,1012.755005
2022-09-03T10:54:55.881Z,1012.766418
2022-09-03T10:55:48.337Z,1012.742798
2022-09-03T10:57:46.953Z,1012.708496
2022-09-03T10:58:28.225Z,1012.817993
2022-09-03T10:59:30.170Z,1012.79071
2022-09-03T11:00:26.650Z,1012.848694
2022-09-03T11:02:27.813Z,1012.844543
2022-09-03T11:03:30.197Z,1012.876038
2022-09-03T11:04:26.787Z,1012.809753
2022-09-03T11:05:28.122Z,1012.958069
2022-09-03T11:06:25.210Z,1012.875732
2022-09-03T11:07:26.417Z,1012.922424
2022-09-03T11:08:25.498Z,1012.914673
2022-09-03T11:09:23.268Z,1012.914673
2022-09-03T11:10:24.749Z,1012.836365
2022-09-03T11:10:30.868Z,1012.836365
2022-09-03T11:12:22.587Z,1012.891541
2022-09-03T11:13:25.858Z,1012.875732
2022-09-03T11:14:20.534Z,1012.883423
2022-09-03T11:15:27.706Z,1012.875732
2022-09-03T11:17:18.272Z,1012.989319
2022-09-03T11:18:19.783Z,1012.864075
2022-09-03T11:19:17.821Z,1012.953918
2022-09-03T11:20:18.115Z,1012.899109
2022-09-03T11:22:20.729Z,1012.949524